createdAt,value
2023-03-02T00:00:46.040Z,0
2023-03-02T00:04:11.252Z,0
2023-03-02T00:07:36.370Z,0
2023-03-02T00:11:01.552Z,0
2023-03-02T00:14:26.746Z,0
2023-03-02T00:17:51.891Z,0
2023-03-02T00:21:17.036Z,0
2023-03-02T00:24:42.209Z,0
2023-03-02T00:28:07.376Z,0
2023-03-02T00:31:32.640Z,0
2023-03-02T00:34:57.692Z,0
2023-03-02T00:38:22.860Z,0
2023-03-02T00:41:48.046Z,0
2023-03-02T00:45:13.206Z,0
2023-03-02T00:48:38.370Z,0
2023-03-02T00:52:03.535Z,0
2023-03-02T00:55:28.695Z,0
2023-03-02T00:58:53.862Z,0
2023-03-02T01:02:19.147Z,0
2023-03-02T01:05:44.218Z,0
2023-03-02T01:09:09.401Z,0
2023-03-02T01:12:34.596Z,0
2023-03-02T01:15:59.807Z,0
2023-03-02T01:19:24.953Z,0
2023-03-02T01:22:50.143Z,0
2023-03-02T01:26:15.319Z,0
2023-03-02T01:29:40.466Z,0
2023-03-02T01:33:05.612Z,0
2023-03-02T01:36:31.254Z,0
2023-03-02T01:39:55.998Z,0
2023-03-02T01:43:21.155Z,0
2023-03-02T01:46:46.335Z,0
2023-03-02T01:50:11.522Z,0
2023-03-02T01:53:36.682Z,0
2023-03-02T01:57:01.869Z,0
2023-03-02T02:00:27.013Z,0
2023-03-02T02:03:52.199Z,0
2023-03-02T02:07:17.356Z,0
2023-03-02T02:10:42.511Z,0
2023-03-02T02:14:07.682Z,0
2023-03-02T02:17:32.842Z,0
2023-03-02T02:20:58.012Z,0
2023-03-02T02:24:23.188Z,0
2023-03-02T02:27:48.388Z,0
2023-03-02T02:31:13.607Z,0
2023-03-02T02:34:38.716Z,0
2023-03-02T02:38:03.862Z,0
2023-03-02T02:41:29.027Z,0
2023-03-02T02:44:54.231Z,0
2023-03-02T02:48:19.422Z,0
2023-03-02T02:51:44.575Z,0
2023-03-02T02:55:09.688Z,0
2023-03-02T02:58:34.851Z,0
2023-03-02T03:02:00.673Z,0
2023-03-02T03:05:25.863Z,0
2023-03-02T03:08:51.016Z,0
2023-03-02T03:12:16.198Z,0
2023-03-02T03:15:41.344Z,0
2023-03-02T03:19:06.481Z,0
2023-03-02T03:22:31.712Z,0
2023-03-02T03:25:56.845Z,0
2023-03-02T03:29:21.995Z,0
2023-03-02T03:32:47.168Z,0
2023-03-02T03:36:12.333Z,0
2023-03-02T03:39:37.518Z,0
2023-03-02T03:43:02.640Z,0
2023-03-02T03:46:27.858Z,0
2023-03-02T03:49:52.988Z,0
2023-03-02T03:53:18.157Z,0
2023-03-02T03:56:43.335Z,0
2023-03-02T04:00:08.445Z,0
2023-03-02T04:03:33.623Z,0
2023-03-02T04:06:58.808Z,0
2023-03-02T04:10:23.974Z,0
2023-03-02T04:13:49.278Z,0
2023-03-02T04:17:14.277Z,0
2023-03-02T04:20:39.441Z,0
2023-03-02T04:24:04.597Z,0
2023-03-02T04:27:29.787Z,0
2023-03-02T04:30:55.036Z,0
2023-03-02T04:34:20.155Z,0
2023-03-02T04:37:45.452Z,0
2023-03-02T04:41:10.615Z,0
2023-03-02T04:44:35.784Z,0
2023-03-02T04:48:01.025Z,0
2023-03-02T04:51:26.172Z,0
2023-03-02T04:54:51.345Z,0
2023-03-02T04:58:16.510Z,0
2023-03-02T05:01:41.676Z,0
2023-03-02T05:05:06.873Z,0
2023-03-02T05:08:32.016Z,0
2023-03-02T05:11:57.189Z,0
2023-03-02T05:15:22.353Z,0
2023-03-02T05:18:47.525Z,0
2023-03-02T05:22:12.751Z,0
2023-03-02T05:25:37.881Z,0
2023-03-02T05:29:03.052Z,0
2023-03-02T05:32:28.314Z,0
2023-03-02T05:35:53.406Z,0
2023-03-02T05:39:18.605Z,0
2023-03-02T05:42:43.764Z,0
2023-03-02T05:46:08.915Z,0
2023-03-02T05:49:34.079Z,0
2023-03-02T05:52:59.274Z,0
2023-03-02T05:56:24.438Z,0
2023-03-02T05:59:49.622Z,0
2023-03-02T06:03:14.854Z,0
2023-03-02T06:06:40.197Z,0
2023-03-02T06:10:05.179Z,6
2023-03-02T06:13:30.422Z,6
2023-03-02T06:16:55.658Z,6
2023-03-02T06:20:20.878Z,6
2023-03-02T06:23:46.074Z,6
2023-03-02T06:27:11.296Z,11
2023-03-02T06:30:36.605Z,11
2023-03-02T06:34:01.673Z,11
2023-03-02T06:37:26.861Z,11
2023-03-02T06:40:52.010Z,17
2023-03-02T06:44:17.211Z,17
2023-03-02T06:47:42.416Z,17
2023-03-02T06:51:08.315Z,23
2023-03-02T06:54:33.500Z,23
2023-03-02T06:57:58.773Z,23
2023-03-02T07:01:24.023Z,28
2023-03-02T07:04:49.157Z,34
2023-03-02T07:08:14.322Z,34
2023-03-02T07:11:39.533Z,39
2023-03-02T07:15:04.744Z,45
2023-03-02T07:18:29.942Z,51
2023-03-02T07:21:55.589Z,51
2023-03-02T07:25:20.746Z,51
2023-03-02T07:28:45.924Z,56
2023-03-02T07:32:12.515Z,56
2023-03-02T07:35:36.346Z,56
2023-03-02T07:39:01.469Z,56
2023-03-02T07:42:26.624Z,62
2023-03-02T07:45:51.785Z,68
2023-03-02T07:49:16.954Z,68
2023-03-02T07:52:42.142Z,73
2023-03-02T07:56:07.461Z,79
2023-03-02T07:59:32.583Z,79
2023-03-02T08:02:57.872Z,84
2023-03-02T08:06:22.953Z,90
2023-03-02T08:09:48.168Z,90
2023-03-02T08:13:13.393Z,96
2023-03-02T08:16:38.602Z,101
2023-03-02T08:20:03.688Z,101
2023-03-02T08:23:28.955Z,107
2023-03-02T08:26:54.049Z,107
2023-03-02T08:30:19.271Z,107
2023-03-02T08:33:45.107Z,107
2023-03-02T08:37:10.249Z,101
2023-03-02T08:40:35.837Z,101
2023-03-02T08:44:01.032Z,101
2023-03-02T08:47:26.224Z,101
2023-03-02T08:50:51.373Z,101
2023-03-02T08:54:16.600Z,96
2023-03-02T08:57:41.781Z,96
2023-03-02T09:01:06.979Z,96
2023-03-02T09:04:32.306Z,96
2023-03-02T09:07:57.304Z,96
2023-03-02T09:11:22.535Z,96
2023-03-02T09:14:47.725Z,96
2023-03-02T09:18:12.884Z,96
2023-03-02T09:21:38.105Z,101
2023-03-02T09:25:03.270Z,101
2023-03-02T09:28:28.543Z,107
2023-03-02T09:31:53.795Z,113
2023-03-02T09:35:18.860Z,113
2023-03-02T09:38:44.209Z,118
2023-03-02T09:42:09.196Z,118
2023-03-02T09:45:34.438Z,124
2023-03-02T09:48:59.608Z,124
2023-03-02T09:52:24.815Z,124
2023-03-02T09:55:50.046Z,124
2023-03-02T09:59:15.210Z,124
2023-03-02T10:02:40.443Z,124
2023-03-02T10:06:05.614Z,124
2023-03-02T10:09:30.782Z,124
2023-03-02T10:12:56.005Z,124
2023-03-02T10:16:21.232Z,118
2023-03-02T10:19:46.390Z,118
2023-03-02T10:23:11.626Z,118
2023-03-02T10:26:36.818Z,118
2023-03-02T10:30:02.005Z,124
2023-03-02T10:33:27.161Z,124
2023-03-02T10:36:52.351Z,124
2023-03-02T10:40:17.520Z,118
2023-03-02T10:43:42.687Z,118
2023-03-02T10:47:07.882Z,124
2023-03-02T10:50:33.041Z,124
2023-03-02T10:53:58.217Z,135
2023-03-02T10:57:23.401Z,141
2023-03-02T11:00:48.596Z,146
2023-03-02T11:04:13.788Z,152
2023-03-02T11:07:38.954Z,163
2023-03-02T11:11:04.191Z,169
2023-03-02T11:14:29.395Z,174
2023-03-02T11:17:54.554Z,174
2023-03-02T11:21:19.833Z,180
2023-03-02T11:24:44.990Z,180
2023-03-02T11:28:10.189Z,174
2023-03-02T11:31:35.840Z,174
2023-03-02T11:35:00.562Z,169
2023-03-02T11:38:25.728Z,169
2023-03-02T11:41:50.880Z,163
2023-03-02T11:45:16.061Z,158
2023-03-02T11:48:41.209Z,152
2023-03-02T11:52:06.385Z,152
2023-03-02T11:55:31.598Z,146
2023-03-02T11:58:56.713Z,141
2023-03-02T12:02:21.907Z,141
2023-03-02T12:05:47.183Z,135
2023-03-02T12:09:12.285Z,129
2023-03-02T12:12:37.419Z,129
2023-03-02T12:16:02.622Z,124
2023-03-02T12:19:27.712Z,118
2023-03-02T12:22:52.873Z,113
2023-03-02T12:26:18.079Z,107
2023-03-02T12:29:43.251Z,107
2023-03-02T12:33:08.396Z,101
2023-03-02T12:36:33.749Z,96
2023-03-02T12:39:59.646Z,96
2023-03-02T12:43:23.914Z,96
2023-03-02T12:46:49.120Z,90
2023-03-02T12:50:14.285Z,90
2023-03-02T12:53:39.464Z,84
2023-03-02T12:57:04.638Z,84
2023-03-02T13:00:29.828Z,79
2023-03-02T13:03:55.985Z,79
2023-03-02T13:07:21.306Z,73
2023-03-02T13:10:46.496Z,73
2023-03-02T13:14:11.621Z,68
2023-03-02T13:17:36.784Z,68
2023-03-02T13:21:01.979Z,68
2023-03-02T13:24:27.116Z,62
2023-03-02T13:27:52.350Z,62
2023-03-02T13:31:17.595Z,56
2023-03-02T13:34:42.640Z,56
2023-03-02T13:38:08.186Z,51
2023-03-02T13:41:33.721Z,51
2023-03-02T13:44:58.853Z,51
2023-03-02T13:48:24.049Z,45
2023-03-02T13:51:49.244Z,45
2023-03-02T13:55:15.653Z,45
2023-03-02T13:58:40.817Z,45
2023-03-02T14:02:05.986Z,45
2023-03-02T14:05:31.240Z,39
2023-03-02T14:08:56.605Z,39
2023-03-02T14:12:21.957Z,39
2023-03-02T14:15:47.297Z,39
2023-03-02T14:19:12.546Z,39
2023-03-02T14:22:37.839Z,39
2023-03-02T14:26:03.139Z,39
2023-03-02T14:29:28.490Z,39
2023-03-02T15:06:01.494Z,6
2023-03-02T15:09:23.715Z,11
2023-03-02T15:12:49.041Z,11
2023-03-02T15:16:14.388Z,11
2023-03-02T15:19:39.726Z,11
2023-03-02T15:23:05.055Z,11
2023-03-02T15:26:30.408Z,11
2023-03-02T15:29:56.859Z,11
2023-03-02T15:33:21.078Z,11
2023-03-02T15:36:46.411Z,6
2023-03-02T15:40:11.800Z,6
2023-03-02T15:43:37.087Z,6
2023-03-02T15:47:02.490Z,6
2023-03-02T15:50:27.712Z,6
2023-03-02T15:53:53.010Z,6
2023-03-02T15:57:18.365Z,6
2023-03-02T16:00:43.716Z,6
2023-03-02T16:04:08.966Z,6
2023-03-02T16:07:34.251Z,6
2023-03-02T16:10:59.648Z,6
2023-03-02T16:14:24.832Z,6
2023-03-02T16:17:50.094Z,6
2023-03-02T16:21:15.392Z,6
2023-03-02T16:24:41.775Z,0
2023-03-02T16:28:06.101Z,0
2023-03-02T16:31:31.481Z,0
2023-03-02T16:34:56.736Z,0
2023-03-02T16:38:22.026Z,0
2023-03-02T16:41:47.292Z,0
2023-03-02T16:45:12.598Z,0
2023-03-02T16:48:37.898Z,0
2023-03-02T16:52:03.179Z,0
2023-03-02T16:55:28.490Z,0
2023-03-02T16:58:55.353Z,0
2023-03-02T17:02:19.150Z,0
2023-03-02T17:05:44.669Z,0
2023-03-02T17:09:11.358Z,0
2023-03-02T17:12:35.303Z,0
2023-03-02T17:16:00.752Z,0
2023-03-02T17:19:25.956Z,0
2023-03-02T17:22:51.265Z,0
2023-03-02T17:26:16.527Z,0
2023-03-02T17:29:42.043Z,0
2023-03-02T17:33:07.356Z,0
2023-03-02T17:36:33.643Z,0
2023-03-02T17:39:58.019Z,0
2023-03-02T17:43:24.024Z,0
2023-03-02T17:46:49.326Z,0
2023-03-02T17:50:14.676Z,0
2023-03-02T17:53:39.931Z,0
2023-03-02T17:57:05.296Z,0
2023-03-02T18:00:30.641Z,0
2023-03-02T18:03:56.006Z,0
2023-03-02T18:07:21.264Z,0
2023-03-02T18:10:46.597Z,0
2023-03-02T18:14:11.925Z,0
2023-03-02T18:17:37.254Z,0
2023-03-02T18:21:02.574Z,0
2023-03-02T18:24:27.851Z,0
2023-03-02T18:27:54.657Z,0
2023-03-02T18:31:20.417Z,0
2023-03-02T18:34:45.652Z,0
2023-03-02T18:38:12.330Z,0
2023-03-02T18:41:37.629Z,0
2023-03-02T18:45:06.817Z,0
2023-03-02T18:48:32.133Z,0
2023-03-02T18:51:57.495Z,0
2023-03-02T18:55:22.852Z,0
2023-03-02T18:58:48.114Z,0
2023-03-02T19:02:13.505Z,0
2023-03-02T19:05:38.741Z,0
2023-03-02T19:09:03.983Z,0
2023-03-02T19:12:29.264Z,0
2023-03-02T19:15:54.844Z,0
2023-03-02T19:19:19.837Z,0
2023-03-02T19:22:45.211Z,0
2023-03-02T19:26:10.462Z,0
2023-03-02T19:29:35.713Z,0
2023-03-02T19:33:01.005Z,0
2023-03-02T19:36:26.378Z,0
2023-03-02T19:39:51.663Z,0
2023-03-02T19:43:16.937Z,0
2023-03-02T19:46:42.237Z,0
2023-03-02T19:50:07.531Z,0
2023-03-02T19:53:32.802Z,0
2023-03-02T19:56:58.101Z,0
2023-03-02T20:00:23.352Z,0
2023-03-02T20:03:48.623Z,0
2023-03-02T20:07:13.953Z,0
2023-03-02T20:10:39.236Z,0
2023-03-02T20:14:04.563Z,0
2023-03-02T20:17:29.800Z,0
2023-03-02T20:20:55.115Z,0
2023-03-02T20:24:20.380Z,0
2023-03-02T20:27:45.660Z,0
2023-03-02T20:31:11.020Z,0
2023-03-02T20:34:36.228Z,0
2023-03-02T20:38:01.588Z,0
2023-03-02T20:41:26.887Z,0
2023-03-02T20:44:52.253Z,0
2023-03-02T20:48:17.500Z,0
2023-03-02T20:51:42.723Z,0
2023-03-02T20:55:07.947Z,0
2023-03-02T20:58:33.184Z,0
2023-03-02T21:01:58.403Z,0
2023-03-02T21:05:23.641Z,0
2023-03-02T21:08:48.841Z,0
2023-03-02T21:12:14.037Z,0
2023-03-02T21:15:39.283Z,0
2023-03-02T21:19:04.511Z,0
2023-03-02T21:22:29.771Z,0
2023-03-02T21:25:54.955Z,0
2023-03-02T21:29:20.171Z,0
2023-03-02T21:32:45.413Z,0
2023-03-02T21:36:10.614Z,0
2023-03-02T21:39:35.876Z,0
2023-03-02T21:43:01.070Z,0
2023-03-02T21:46:26.344Z,0
2023-03-02T21:49:51.521Z,0
2023-03-02T21:53:16.746Z,0
2023-03-02T21:56:41.994Z,0
2023-03-02T22:00:07.167Z,0
2023-03-02T22:03:32.380Z,0
2023-03-02T22:06:57.595Z,0
2023-03-02T22:10:22.806Z,0
2023-03-02T22:13:48.068Z,0
2023-03-02T22:17:13.241Z,0
2023-03-02T22:20:40.033Z,0
2023-03-02T22:24:03.694Z,0
2023-03-02T22:27:28.907Z,0
2023-03-02T22:30:54.151Z,0
2023-03-02T22:34:20.584Z,0
2023-03-02T22:37:44.574Z,0
2023-03-02T22:41:09.769Z,0
2023-03-02T22:44:34.998Z,0
2023-03-02T22:48:00.202Z,0
2023-03-02T22:51:25.422Z,0
2023-03-02T22:54:50.637Z,0
2023-03-02T22:58:15.851Z,0
2023-03-02T23:01:41.068Z,0
2023-03-02T23:05:06.288Z,0
2023-03-02T23:08:31.488Z,0
2023-03-02T23:11:56.755Z,0
2023-03-02T23:15:21.967Z,0
2023-03-02T23:18:47.155Z,0
2023-03-02T23:22:12.409Z,0
2023-03-02T23:25:37.598Z,0
2023-03-02T23:29:02.820Z,0
2023-03-02T23:32:28.052Z,0
2023-03-02T23:35:53.349Z,0
2023-03-02T23:39:18.462Z,0
2023-03-02T23:42:43.641Z,0
2023-03-02T23:46:08.880Z,0
2023-03-02T23:49:34.062Z,0
2023-03-02T23:52:59.282Z,0
2023-03-02T23:56:24.518Z,0
2023-03-02T23:59:49.709Z,0
